createdAt,value
2017-09-18T00:00:43.489Z,7.23
2017-09-18T00:03:10.977Z,8.40
2017-09-18T00:05:39.258Z,7.27
2017-09-18T00:08:07.514Z,7.90
2017-09-18T00:10:35.774Z,7.40
2017-09-18T00:13:03.393Z,8.30
2017-09-18T00:15:30.883Z,7.90
2017-09-18T00:17:58.487Z,7.93
2017-09-18T00:20:25.981Z,8.90
2017-09-18T00:22:53.497Z,8.00
2017-09-18T00:25:20.984Z,8.77
2017-09-18T00:27:49.249Z,8.47
2017-09-18T00:30:17.506Z,7.53
2017-09-18T00:32:45.781Z,7.50
2017-09-18T00:35:13.334Z,7.67
2017-09-18T00:37:40.878Z,8.67
2017-09-18T00:40:08.361Z,7.30
2017-09-18T00:42:35.989Z,8.83
2017-09-18T00:45:03.488Z,8.70
2017-09-18T00:47:31.735Z,8.23
2017-09-18T00:49:59.236Z,7.60
2017-09-18T00:52:26.727Z,7.93
2017-09-18T00:54:54.996Z,7.60
2017-09-18T00:57:23.245Z,8.07
2017-09-18T00:59:51.516Z,7.60
2017-09-18T01:02:19.761Z,8.90
2017-09-18T01:04:47.263Z,8.27
2017-09-18T01:07:14.784Z,8.73
2017-09-18T01:09:42.325Z,7.60
2017-09-18T01:12:09.808Z,7.23
2017-09-18T01:14:37.292Z,7.07
2017-09-18T01:17:04.797Z,6.27
2017-09-18T01:19:32.277Z,7.40
2017-09-18T01:21:59.780Z,7.87
2017-09-18T01:24:27.385Z,8.13
2017-09-18T01:26:54.881Z,7.70
2017-09-18T01:29:22.373Z,8.60
2017-09-18T01:31:49.886Z,8.67
2017-09-18T01:34:17.382Z,8.33
2017-09-18T01:36:44.881Z,8.33
2017-09-18T01:39:12.365Z,7.10
2017-09-18T01:41:39.888Z,6.60
2017-09-18T01:44:07.369Z,7.23
2017-09-18T01:46:34.967Z,7.53
2017-09-18T01:49:02.478Z,7.20
2017-09-18T01:51:30.732Z,7.77
2017-09-18T01:53:58.234Z,6.83
2017-09-18T01:56:25.712Z,7.63
2017-09-18T01:58:53.213Z,7.27
2017-09-18T02:01:20.692Z,7.70
2017-09-18T02:03:48.282Z,7.70
2017-09-18T02:06:15.770Z,7.20
2017-09-18T02:08:43.276Z,7.40
2017-09-18T02:11:10.758Z,7.00
2017-09-18T02:13:39.057Z,7.57
2017-09-18T02:16:06.607Z,7.17
2017-09-18T02:18:34.141Z,7.83
2017-09-18T02:21:01.689Z,7.53
2017-09-18T02:23:29.230Z,6.90
2017-09-18T02:25:56.732Z,7.57
2017-09-18T02:28:24.319Z,7.40
2017-09-18T02:30:51.840Z,7.17
2017-09-18T02:33:20.085Z,7.37
2017-09-18T02:35:47.585Z,7.50
2017-09-18T02:38:15.073Z,7.73
2017-09-18T02:40:43.369Z,8.50
2017-09-18T02:43:11.294Z,8.03
2017-09-18T02:45:39.582Z,7.50
2017-09-18T02:48:07.128Z,7.80
2017-09-18T02:50:34.612Z,7.13
2017-09-18T02:53:02.112Z,8.37
2017-09-18T02:55:29.598Z,7.30
2017-09-18T02:57:57.114Z,7.37
2017-09-18T03:00:24.605Z,8.30
2017-09-18T03:02:52.105Z,7.57
2017-09-18T03:05:19.633Z,8.10
2017-09-18T03:07:47.137Z,7.40
2017-09-18T03:10:14.616Z,8.00
2017-09-18T03:12:42.126Z,7.60
2017-09-18T03:15:10.394Z,7.93
2017-09-18T03:17:38.704Z,9.10
2017-09-18T03:20:06.242Z,8.00
2017-09-18T03:22:33.753Z,8.03
2017-09-18T03:25:02.014Z,8.33
2017-09-18T03:27:30.314Z,8.13
2017-09-18T03:29:57.941Z,8.23
2017-09-18T03:32:25.430Z,7.67
2017-09-18T03:34:53.299Z,9.17
2017-09-18T03:37:20.798Z,7.10
2017-09-18T03:39:48.358Z,8.00
2017-09-18T03:42:15.849Z,7.50
2017-09-18T03:44:44.117Z,8.50
2017-09-18T03:47:11.609Z,7.47
2017-09-18T03:49:39.118Z,7.70
2017-09-18T03:52:06.614Z,7.80
2017-09-18T03:54:34.134Z,8.27
2017-09-18T03:57:01.626Z,7.97
2017-09-18T03:59:29.889Z,7.00
2017-09-18T04:01:57.388Z,7.10
2017-09-18T04:04:24.923Z,7.90
2017-09-18T04:06:53.281Z,6.80
2017-09-18T04:09:20.778Z,6.90
2017-09-18T04:11:49.062Z,7.43
2017-09-18T04:14:16.554Z,7.93
2017-09-18T04:16:44.062Z,7.90
2017-09-18T04:19:11.549Z,6.60
2017-09-18T04:21:39.056Z,8.03
2017-09-18T04:24:06.554Z,7.63
2017-09-18T04:26:34.838Z,7.90
2017-09-18T04:29:02.326Z,8.33
2017-09-18T04:31:29.836Z,7.27
2017-09-18T04:33:57.331Z,7.73
2017-09-18T04:36:25.605Z,7.90
2017-09-18T04:38:53.866Z,8.70
2017-09-18T04:41:21.390Z,8.50
2017-09-18T04:43:49.663Z,8.40
2017-09-18T04:46:17.941Z,7.97
2017-09-18T04:48:45.434Z,8.50
2017-09-18T04:51:13.759Z,8.93
2017-09-18T04:53:41.274Z,8.60
2017-09-18T04:56:09.563Z,9.30
2017-09-18T04:58:37.081Z,8.60
2017-09-18T05:01:05.343Z,8.53
2017-09-18T05:03:33.621Z,8.90
2017-09-18T05:06:01.114Z,10.47
2017-09-18T05:08:28.631Z,9.00
2017-09-18T05:10:56.167Z,9.03
2017-09-18T05:13:23.698Z,9.73
2017-09-18T05:15:51.266Z,9.03
2017-09-18T05:18:18.797Z,8.27
2017-09-18T05:20:46.310Z,8.50
2017-09-18T05:23:14.575Z,8.87
2017-09-18T05:25:42.857Z,9.23
2017-09-18T05:28:10.394Z,9.40
2017-09-18T05:30:37.905Z,9.33
2017-09-18T05:33:05.515Z,9.20
2017-09-18T05:35:33.026Z,8.80
2017-09-18T05:38:01.281Z,8.13
2017-09-18T05:40:29.586Z,9.77
2017-09-18T05:42:57.134Z,9.93
2017-09-18T05:45:24.653Z,8.80
2017-09-18T05:47:52.143Z,8.40
2017-09-18T05:50:19.639Z,8.70
2017-09-18T05:52:48.009Z,8.33
2017-09-18T05:55:15.512Z,7.50
2017-09-18T05:57:43.035Z,9.00
2017-09-18T06:00:10.538Z,7.40
2017-09-18T06:02:38.062Z,11.93
2017-09-18T06:05:06.369Z,9.17
2017-09-18T06:07:33.883Z,8.10
2017-09-18T06:10:01.369Z,8.20
2017-09-18T06:12:28.978Z,8.13
2017-09-18T06:14:56.521Z,9.37
2017-09-18T06:17:24.044Z,9.23
2017-09-18T06:19:51.540Z,7.60
2017-09-18T06:22:19.830Z,7.90
2017-09-18T06:24:47.326Z,8.13
2017-09-18T06:27:14.918Z,8.70
2017-09-18T06:29:42.470Z,8.00
2017-09-18T06:32:10.008Z,7.50
2017-09-18T06:34:37.517Z,8.30
2017-09-18T06:37:05.814Z,8.20
2017-09-18T06:39:33.359Z,7.60
2017-09-18T06:42:00.844Z,8.13
2017-09-18T06:44:28.353Z,8.10
2017-09-18T06:46:55.846Z,8.83
2017-09-18T06:49:24.148Z,8.03
2017-09-18T06:51:51.647Z,8.10
2017-09-18T06:54:19.906Z,9.13
2017-09-18T06:56:48.181Z,7.70
2017-09-18T06:59:16.450Z,7.93
2017-09-18T07:01:44.734Z,9.07
2017-09-18T07:04:12.230Z,7.63
2017-09-18T07:06:39.816Z,7.63
2017-09-18T07:09:07.366Z,8.10
2017-09-18T07:11:34.875Z,7.30
2017-09-18T07:14:03.137Z,8.30
2017-09-18T07:16:31.431Z,8.30
2017-09-18T07:18:58.939Z,8.43
2017-09-18T07:21:26.446Z,8.17
2017-09-18T07:23:54.726Z,9.10
2017-09-18T07:26:23.018Z,7.80
2017-09-18T07:28:50.571Z,9.33
2017-09-18T07:31:18.066Z,8.80
2017-09-18T07:33:45.590Z,7.90
2017-09-18T07:36:13.086Z,9.30
2017-09-18T07:38:40.601Z,9.63
2017-09-18T07:41:08.863Z,9.33
2017-09-18T07:43:37.149Z,9.80
2017-09-18T07:46:04.640Z,9.70
2017-09-18T07:48:32.132Z,9.10
2017-09-18T07:50:59.647Z,9.50
2017-09-18T07:53:27.151Z,10.10
2017-09-18T07:55:54.663Z,9.17
2017-09-18T07:58:22.239Z,9.90
2017-09-18T08:00:49.761Z,8.70
2017-09-18T08:03:17.254Z,8.07
2017-09-18T08:05:45.530Z,9.27
2017-09-18T08:08:13.028Z,9.77
2017-09-18T08:10:40.546Z,9.87
2017-09-18T08:13:08.037Z,9.00
2017-09-18T08:15:37.058Z,8.70
2017-09-18T08:18:04.609Z,9.10
2017-09-18T08:20:32.137Z,8.00
2017-09-18T08:23:00.397Z,9.27
2017-09-18T08:25:27.890Z,8.60
2017-09-18T08:27:55.402Z,8.60
2017-09-18T08:30:22.912Z,9.10
2017-09-18T08:32:51.190Z,9.97
2017-09-18T08:35:18.691Z,9.33
2017-09-18T08:37:46.205Z,10.20
2017-09-18T08:40:13.692Z,10.20
2017-09-18T08:42:41.961Z,8.97
2017-09-18T08:45:10.227Z,9.30
2017-09-18T08:47:37.742Z,9.93
2017-09-18T08:50:05.243Z,10.13
2017-09-18T08:52:32.757Z,10.40
2017-09-18T08:55:00.332Z,10.23
2017-09-18T08:57:27.871Z,9.80
2017-09-18T08:59:55.370Z,10.30
2017-09-18T09:02:23.657Z,10.80
2017-09-18T09:04:51.165Z,11.70
2017-09-18T09:07:18.667Z,11.20
2017-09-18T09:09:46.229Z,12.13
2017-09-18T09:12:13.726Z,11.57
2017-09-18T09:14:41.281Z,12.13
2017-09-18T09:17:08.783Z,12.33
2017-09-18T09:19:36.302Z,14.20
2017-09-18T09:22:03.846Z,13.30
2017-09-18T09:24:31.358Z,12.67
2017-09-18T09:26:58.853Z,13.40
2017-09-18T09:29:26.387Z,13.20
2017-09-18T09:31:53.895Z,10.47
2017-09-18T09:34:22.181Z,11.47
2017-09-18T09:36:50.461Z,10.63
2017-09-18T09:39:17.966Z,10.77
2017-09-18T09:41:46.274Z,9.50
2017-09-18T09:44:13.818Z,11.77
2017-09-18T09:46:41.362Z,11.63
2017-09-18T09:49:08.861Z,12.50
2017-09-18T09:51:37.142Z,10.90
2017-09-18T09:54:05.406Z,13.47
2017-09-18T09:56:33.778Z,12.60
2017-09-18T09:59:01.277Z,11.77
2017-09-18T10:01:28.894Z,11.90
2017-09-18T10:03:56.418Z,13.40
2017-09-18T10:06:23.983Z,13.33
2017-09-18T10:08:51.496Z,14.17
2017-09-18T10:11:19.154Z,14.30
2017-09-18T10:13:46.670Z,14.33
2017-09-18T10:16:14.941Z,12.43
2017-09-18T10:18:42.507Z,11.83
2017-09-18T10:21:10.048Z,12.10
2017-09-18T10:23:37.580Z,11.80
2017-09-18T10:26:06.590Z,10.80
2017-09-18T10:28:34.882Z,11.87
2017-09-18T10:31:02.435Z,11.10
2017-09-18T10:33:29.945Z,13.67
2017-09-18T10:35:57.446Z,12.03
2017-09-18T10:38:24.960Z,12.83
2017-09-18T10:40:52.465Z,12.50
2017-09-18T10:43:20.756Z,14.17
2017-09-18T10:45:48.250Z,14.23
2017-09-18T10:48:15.750Z,13.53
2017-09-18T10:50:43.268Z,13.70
2017-09-18T10:53:10.765Z,14.27
2017-09-18T10:55:38.284Z,11.80
2017-09-18T10:58:05.773Z,10.67
2017-09-18T11:00:34.059Z,10.90
2017-09-18T11:03:01.614Z,11.17
2017-09-18T11:05:29.158Z,10.60
2017-09-18T11:07:56.659Z,10.37
2017-09-18T11:10:24.177Z,11.20
2017-09-18T11:12:51.690Z,11.27
2017-09-18T11:15:19.202Z,9.77
2017-09-18T11:17:47.457Z,9.50
2017-09-18T11:20:14.967Z,9.40
2017-09-18T11:22:42.452Z,9.50
2017-09-18T11:25:10.006Z,7.33
2017-09-18T11:27:37.493Z,7.97
2017-09-18T11:30:06.501Z,6.63
2017-09-18T11:32:34.767Z,6.10
2017-09-18T11:35:02.329Z,5.90
2017-09-18T11:37:29.965Z,6.50
2017-09-18T11:39:57.486Z,7.03
2017-09-18T11:42:25.746Z,6.50
2017-09-18T11:44:53.326Z,5.20
2017-09-18T11:47:20.825Z,5.27
2017-09-18T11:49:48.309Z,5.60
2017-09-18T11:52:15.812Z,4.27
2017-09-18T11:54:43.302Z,5.13
2017-09-18T11:57:10.813Z,4.37
2017-09-18T11:59:39.102Z,3.03
2017-09-18T12:02:06.604Z,3.73
2017-09-18T12:04:34.098Z,4.00
2017-09-18T12:07:01.606Z,3.17
2017-09-18T12:09:29.890Z,2.87
2017-09-18T12:11:57.452Z,3.50
2017-09-18T12:14:24.938Z,3.10
2017-09-18T12:16:52.470Z,3.57
2017-09-18T12:19:20.061Z,2.73
2017-09-18T12:21:47.550Z,3.07
2017-09-18T12:24:15.149Z,2.30
2017-09-18T12:26:42.646Z,2.70
2017-09-18T12:29:10.241Z,2.00
2017-09-18T12:31:37.725Z,2.07
2017-09-18T12:34:05.233Z,2.03
2017-09-18T12:36:32.725Z,2.00
2017-09-18T12:39:00.304Z,1.87
2017-09-18T12:41:27.802Z,2.00
2017-09-18T12:43:55.299Z,1.77
2017-09-18T12:46:22.829Z,1.53
2017-09-18T12:48:50.380Z,1.70
2017-09-18T12:51:17.896Z,1.33
2017-09-18T12:53:45.433Z,1.67
2017-09-18T12:56:12.978Z,1.17
2017-09-18T12:58:40.470Z,1.33
2017-09-18T13:01:07.977Z,1.60
2017-09-18T13:03:35.530Z,1.30
2017-09-18T13:06:03.051Z,1.47
2017-09-18T13:08:30.597Z,1.50
2017-09-18T13:10:58.144Z,1.67
2017-09-18T13:13:25.689Z,1.57
2017-09-18T13:15:53.182Z,1.63
2017-09-18T13:18:20.704Z,1.40
2017-09-18T13:20:48.199Z,1.40
2017-09-18T13:23:15.706Z,1.40
2017-09-18T13:25:43.961Z,1.80
2017-09-18T13:28:11.538Z,1.40
2017-09-18T13:30:39.161Z,1.90
2017-09-18T13:33:06.682Z,1.40
2017-09-18T13:35:34.180Z,1.80
2017-09-18T13:38:01.757Z,1.70
2017-09-18T13:40:29.315Z,1.30
2017-09-18T13:42:56.828Z,1.67
2017-09-18T13:45:25.095Z,1.73
2017-09-18T13:47:52.669Z,1.50
2017-09-18T13:50:20.245Z,1.30
2017-09-18T13:52:47.751Z,1.63
2017-09-18T13:55:16.025Z,1.20
2017-09-18T13:57:43.519Z,1.37
2017-09-18T14:00:12.533Z,1.33
2017-09-18T14:02:40.790Z,1.60
2017-09-18T14:05:09.169Z,2.23
2017-09-18T14:07:36.708Z,1.57
2017-09-18T14:10:04.262Z,1.50
2017-09-18T14:12:31.750Z,1.80
2017-09-18T14:15:00.064Z,2.80
2017-09-18T14:17:27.572Z,2.20
2017-09-18T14:19:55.153Z,4.00
2017-09-18T14:22:22.653Z,3.67
2017-09-18T14:24:51.673Z,3.13
2017-09-18T14:27:19.245Z,3.50
2017-09-18T14:29:46.726Z,2.77
2017-09-18T14:32:14.319Z,3.03
2017-09-18T14:34:41.811Z,3.07
2017-09-18T14:37:09.322Z,4.00
2017-09-18T14:39:36.814Z,3.90
2017-09-18T14:42:05.085Z,3.90
2017-09-18T14:44:32.641Z,4.90
2017-09-18T14:47:00.194Z,4.30
2017-09-18T14:49:27.706Z,3.60
2017-09-18T14:51:55.225Z,5.33
2017-09-18T14:54:23.510Z,2.93
2017-09-18T14:56:51.053Z,2.93
2017-09-18T14:59:18.617Z,2.13
2017-09-18T15:01:46.133Z,2.00
2017-09-18T15:04:13.634Z,3.30
2017-09-18T15:06:41.135Z,2.50
2017-09-18T15:09:08.670Z,3.30
2017-09-18T15:11:36.209Z,2.87
2017-09-18T15:14:03.714Z,3.80
2017-09-18T15:16:32.022Z,3.53
2017-09-18T15:18:59.543Z,4.57
2017-09-18T15:21:27.055Z,3.20
2017-09-18T15:23:55.371Z,13.50
2017-09-18T15:26:22.863Z,6.30
2017-09-18T15:28:51.138Z,3.70
2017-09-18T15:31:19.429Z,3.27
2017-09-18T15:33:46.929Z,2.90
2017-09-18T15:36:15.925Z,2.77
2017-09-18T15:38:44.313Z,2.53
2017-09-18T15:41:11.797Z,2.70
2017-09-18T15:43:39.290Z,2.27
2017-09-18T15:46:06.842Z,3.20
2017-09-18T15:48:34.339Z,2.97
2017-09-18T15:51:01.842Z,3.07
2017-09-18T15:53:30.838Z,2.80
2017-09-18T15:55:59.234Z,3.30
2017-09-18T15:58:26.725Z,2.23
2017-09-18T16:00:54.229Z,3.23
2017-09-18T16:03:21.720Z,2.70
2017-09-18T16:05:49.227Z,2.40
2017-09-18T16:08:16.726Z,2.97
2017-09-18T16:10:45.122Z,2.93
2017-09-18T16:13:12.614Z,3.00
2017-09-18T16:15:40.101Z,2.90
2017-09-18T16:18:07.608Z,3.13
2017-09-18T16:20:35.871Z,3.20
2017-09-18T16:23:04.151Z,3.23
2017-09-18T16:25:31.697Z,2.53
2017-09-18T16:27:59.214Z,3.00
2017-09-18T16:30:26.707Z,2.90
2017-09-18T16:32:54.246Z,2.50
2017-09-18T16:35:21.733Z,2.90
2017-09-18T16:37:49.242Z,2.40
2017-09-18T16:40:16.730Z,2.60
2017-09-18T16:42:45.020Z,2.10
2017-09-18T16:45:12.505Z,2.20
2017-09-18T16:47:40.045Z,3.13
2017-09-18T16:50:07.816Z,2.23
2017-09-18T16:52:36.093Z,2.80
2017-09-18T16:55:04.340Z,2.40
2017-09-18T16:57:31.870Z,2.10
2017-09-18T16:59:59.371Z,3.03
2017-09-18T17:02:26.870Z,3.03
2017-09-18T17:04:55.154Z,3.10
2017-09-18T17:07:23.439Z,2.47
2017-09-18T17:09:50.946Z,2.27
2017-09-18T17:12:19.238Z,2.73
2017-09-18T17:14:46.742Z,2.90
2017-09-18T17:17:14.232Z,2.80
2017-09-18T17:19:41.737Z,3.53
2017-09-18T17:22:09.986Z,3.20
2017-09-18T17:24:37.502Z,4.30
2017-09-18T17:27:05.035Z,5.30
2017-09-18T17:29:32.558Z,4.40
2017-09-18T17:32:00.067Z,3.90
2017-09-18T17:34:27.642Z,3.67
2017-09-18T17:36:55.189Z,3.40
2017-09-18T17:39:22.677Z,3.23
2017-09-18T17:41:50.181Z,5.13
2017-09-18T17:44:17.674Z,5.80
2017-09-18T17:46:45.183Z,5.30
2017-09-18T17:49:12.678Z,5.13
2017-09-18T17:51:40.955Z,5.30
2017-09-18T17:54:08.455Z,5.90
2017-09-18T17:56:35.961Z,6.37
2017-09-18T17:59:03.447Z,5.70
2017-09-18T18:01:30.948Z,5.27
2017-09-18T18:03:58.442Z,6.60
2017-09-18T18:06:25.967Z,6.03
2017-09-18T18:08:53.463Z,8.80
2017-09-18T18:11:21.014Z,9.80
2017-09-18T18:13:48.529Z,9.77
2017-09-18T18:16:16.781Z,6.60
2017-09-18T18:18:44.285Z,5.60
2017-09-18T18:21:11.801Z,8.50
2017-09-18T18:23:39.305Z,7.40
2017-09-18T18:26:07.552Z,8.00
2017-09-18T18:28:35.061Z,7.37
2017-09-18T18:31:02.549Z,7.27
2017-09-18T18:33:30.826Z,7.67
2017-09-18T18:35:58.399Z,7.40
2017-09-18T18:38:25.945Z,8.33
2017-09-18T18:40:53.450Z,8.50
2017-09-18T18:43:20.948Z,7.60
2017-09-18T18:45:48.438Z,7.10
2017-09-18T18:48:15.934Z,6.70
2017-09-18T18:50:43.452Z,6.83
2017-09-18T18:53:10.945Z,7.50
2017-09-18T18:55:38.551Z,6.47
2017-09-18T18:58:06.042Z,7.00
2017-09-18T19:00:33.546Z,6.57
2017-09-18T19:03:01.073Z,7.40
2017-09-18T19:05:28.581Z,6.30
2017-09-18T19:07:56.886Z,7.53
2017-09-18T19:10:24.417Z,6.50
2017-09-18T19:12:51.977Z,6.50
2017-09-18T19:15:19.473Z,7.70
2017-09-18T19:17:47.754Z,7.50
2017-09-18T19:20:16.010Z,7.47
2017-09-18T19:22:43.517Z,7.13
2017-09-18T19:25:11.801Z,6.50
2017-09-18T19:27:39.341Z,7.63
2017-09-18T19:30:06.834Z,7.53
2017-09-18T19:32:34.342Z,7.50
2017-09-18T19:35:01.871Z,7.40
2017-09-18T19:37:29.380Z,8.60
2017-09-18T19:39:56.948Z,8.50
2017-09-18T19:42:24.460Z,8.90
2017-09-18T19:44:53.470Z,8.33
2017-09-18T19:47:21.009Z,8.57
2017-09-18T19:49:49.268Z,9.30
2017-09-18T19:52:17.522Z,8.77
2017-09-18T19:54:45.805Z,8.77
2017-09-18T19:57:13.302Z,11.37
2017-09-18T19:59:40.818Z,9.97
2017-09-18T20:02:08.319Z,8.87
2017-09-18T20:04:35.910Z,9.10
2017-09-18T20:07:03.413Z,10.40
2017-09-18T20:09:30.926Z,10.60
2017-09-18T20:11:58.422Z,10.40
2017-09-18T20:14:26.710Z,11.10
2017-09-18T20:16:54.209Z,12.03
2017-09-18T20:19:22.490Z,12.57
2017-09-18T20:21:50.749Z,11.17
2017-09-18T20:24:19.045Z,12.40
2017-09-18T20:26:46.542Z,11.90
2017-09-18T20:29:14.839Z,12.03
2017-09-18T20:31:42.358Z,12.30
2017-09-18T20:34:10.624Z,11.83
2017-09-18T20:36:38.933Z,11.97
2017-09-18T20:39:06.425Z,12.30
2017-09-18T20:41:33.953Z,12.43
2017-09-18T20:44:01.451Z,11.60
2017-09-18T20:46:29.074Z,12.00
2017-09-18T20:48:56.619Z,13.23
2017-09-18T20:51:24.129Z,13.10
2017-09-18T20:53:52.390Z,12.67
2017-09-18T20:56:20.793Z,14.00
2017-09-18T20:58:48.290Z,13.50
2017-09-18T21:01:17.298Z,14.73
2017-09-18T21:03:44.809Z,12.63
2017-09-18T21:06:12.307Z,12.60
2017-09-18T21:08:39.857Z,13.20
2017-09-18T21:11:07.354Z,14.17
2017-09-18T21:13:35.647Z,13.40
2017-09-18T21:16:03.145Z,14.60
2017-09-18T21:18:30.661Z,13.80
2017-09-18T21:20:58.158Z,14.77
2017-09-18T21:23:25.675Z,13.87
2017-09-18T21:25:53.175Z,13.80
2017-09-18T21:28:20.711Z,15.10
2017-09-18T21:30:48.253Z,16.03
2017-09-18T21:33:15.761Z,16.47
2017-09-18T21:35:44.026Z,16.40
2017-09-18T21:38:12.309Z,14.50
2017-09-18T21:40:39.812Z,15.90
2017-09-18T21:43:08.114Z,18.13
2017-09-18T21:45:35.622Z,14.87
2017-09-18T21:48:03.197Z,17.20
2017-09-18T21:50:30.714Z,16.60
2017-09-18T21:52:58.974Z,17.63
2017-09-18T21:55:27.258Z,17.90
2017-09-18T21:57:54.749Z,19.80
2017-09-18T22:00:22.267Z,19.00
2017-09-18T22:02:49.802Z,18.70
2017-09-18T22:05:17.323Z,17.63
2017-09-18T22:07:45.606Z,18.40
2017-09-18T22:10:13.118Z,18.60
2017-09-18T22:12:41.386Z,18.80
2017-09-18T22:15:09.665Z,20.50
2017-09-18T22:17:37.314Z,20.80
2017-09-18T22:20:04.829Z,18.93
2017-09-18T22:22:33.113Z,19.90
2017-09-18T22:25:00.625Z,20.17
2017-09-18T22:27:28.123Z,19.93
2017-09-18T22:29:55.642Z,19.80
2017-09-18T22:32:23.150Z,22.77
2017-09-18T22:34:51.433Z,22.17
2017-09-18T22:37:19.699Z,22.00
2017-09-18T22:39:47.221Z,21.93
2017-09-18T22:42:14.712Z,22.17
2017-09-18T22:44:42.245Z,22.87
2017-09-18T22:47:09.791Z,24.33
2017-09-18T22:49:37.310Z,23.10
2017-09-18T22:52:05.569Z,22.60
2017-09-18T22:54:33.852Z,23.50
2017-09-18T22:57:01.345Z,21.73
2017-09-18T22:59:28.873Z,23.23
2017-09-18T23:01:56.360Z,22.77
2017-09-18T23:04:24.642Z,22.77
2017-09-18T23:06:52.150Z,21.47
2017-09-18T23:09:19.662Z,23.80
2017-09-18T23:11:47.157Z,22.70
2017-09-18T23:14:15.866Z,22.17
2017-09-18T23:16:43.353Z,25.30
2017-09-18T23:19:10.865Z,23.77
2017-09-18T23:21:38.365Z,24.13
2017-09-18T23:24:05.887Z,22.73
2017-09-18T23:26:34.177Z,21.27
2017-09-18T23:29:01.686Z,23.70
2017-09-18T23:31:29.989Z,23.50
2017-09-18T23:33:57.494Z,22.30
2017-09-18T23:36:25.783Z,24.73
2017-09-18T23:38:53.289Z,23.70
2017-09-18T23:41:20.806Z,23.80
2017-09-18T23:43:48.303Z,22.10
2017-09-18T23:46:15.819Z,24.50
2017-09-18T23:48:43.401Z,22.37
2017-09-18T23:51:10.916Z,23.07
2017-09-18T23:53:39.178Z,22.70
2017-09-18T23:56:07.477Z,23.77
2017-09-18T23:58:34.974Z,24.63
